Time;durP1;ratioP1;P1;durP2;ratioP2;P2;SDS_P1;SDS_P2;PMS_P1;PMS_P2;Temp;Humidity;BMP_temperature;BMP_pressure;BME280_temperature;BME280_humidity;BME280_pressure;Samples;Min_cycle;Max_cycle;Signal;HPM_P1;HPM_P2
2020/12/27 00:02:14;;;;;;;7.80;4.22;;;-3.70;99.90;;;;;;5035055;28;20102;-78
2020/12/27 00:04:45;;;;;;;7.15;4.13;;;-3.60;99.90;;;;;;5051720;28;20076;-78
2020/12/27 00:07:17;;;;;;;7.07;4.57;;;-3.60;99.90;;;;;;5035069;28;20410;-79
2020/12/27 00:09:48;;;;;;;6.45;3.88;;;-3.50;99.90;;;;;;5035027;28;20041;-77
2020/12/27 00:12:14;;;;;;;7.68;4.13;;;-3.50;99.90;;;;;;5034289;28;20140;-78
2020/12/27 00:14:45;;;;;;;8.00;4.07;;;-3.50;99.90;;;;;;5050122;28;20090;-78
2020/12/27 00:17:17;;;;;;;6.72;4.05;;;-3.50;99.90;;;;;;5050517;28;20037;-79
2020/12/27 00:19:49;;;;;;;7.80;4.55;;;-3.50;99.90;;;;;;5050460;28;20068;-78
2020/12/27 00:22:20;;;;;;;8.25;3.60;;;-3.50;99.90;;;;;;5051745;28;20079;-78
2020/12/27 00:24:48;;;;;;;5.68;4.10;;;-3.40;99.90;;;;;;5034300;28;20696;-78
2020/12/27 00:27:14;;;;;;;7.10;3.60;;;-3.40;99.90;;;;;;5049903;28;20139;-77
2020/12/27 00:29:41;;;;;;;7.78;4.80;;;-3.40;99.90;;;;;;5049595;28;20131;-79
2020/12/27 00:32:12;;;;;;;5.47;3.83;;;-3.40;99.90;;;;;;5051720;28;20119;-80
2020/12/27 00:34:43;;;;;;;8.60;4.57;;;-3.40;99.90;;;;;;5052076;28;20557;-77
2020/12/27 00:37:14;;;;;;;5.65;4.10;;;-3.40;99.90;;;;;;5035260;28;20106;-78
2020/12/27 00:39:46;;;;;;;5.85;4.15;;;-3.40;99.90;;;;;;5034949;28;20508;-78
2020/12/27 00:42:12;;;;;;;8.63;3.92;;;-3.50;99.90;;;;;;5056194;28;20072;-78
2020/12/27 00:44:44;;;;;;;5.63;3.53;;;-3.50;99.90;;;;;;5070470;28;20040;-78
2020/12/27 00:47:15;;;;;;;11.75;4.05;;;-3.50;99.90;;;;;;5071222;28;20036;-78
2020/12/27 00:49:47;;;;;;;6.47;4.00;;;-3.50;99.90;;;;;;5055032;28;20422;-79
2020/12/27 00:52:18;;;;;;;7.45;4.20;;;-3.50;99.90;;;;;;5055114;28;20036;-78
2020/12/27 00:54:49;;;;;;;7.25;3.58;;;-3.50;99.90;;;;;;5055387;28;20083;-78
2020/12/27 00:57:20;;;;;;;6.53;3.90;;;-3.50;99.90;;;;;;5072437;28;20059;-79
2020/12/27 00:59:47;;;;;;;6.03;3.80;;;-3.50;99.90;;;;;;5070875;28;20474;-78
2020/12/27 01:02:17;;;;;;;7.25;4.05;;;-3.60;99.90;;;;;;5054878;28;20068;-79
2020/12/27 01:04:48;;;;;;;7.78;4.03;;;-3.60;99.90;;;;;;5071385;28;20071;-78
2020/12/27 01:07:25;;;;;;;6.28;4.18;;;-3.60;99.90;;;;;;5071045;28;20044;-78
2020/12/27 01:10:13;;;;;;;7.93;3.28;;;-3.60;99.90;;;;;;5057232;28;20127;-78
2020/12/27 01:12:45;;;;;;;5.72;3.67;;;-3.60;99.90;;;;;;5070626;28;20527;-78
2020/12/27 01:15:18;;;;;;;5.72;3.67;;;-3.60;99.90;;;;;;5055363;28;20041;-78
2020/12/27 01:18:10;;;;;;;7.13;4.15;;;-3.60;99.90;;;;;;5070670;28;20414;-78
2020/12/27 01:20:49;;;;;;;7.00;3.88;;;-3.60;99.90;;;;;;5070930;28;20064;-78
2020/12/27 01:23:16;;;;;;;7.05;3.92;;;-3.60;99.90;;;;;;5070927;28;20056;-78
2020/12/27 01:25:47;;;;;;;7.57;3.50;;;-3.60;99.90;;;;;;5054021;28;20067;-79
2020/12/27 01:28:15;;;;;;;7.97;4.45;;;-3.70;99.90;;;;;;5054296;28;20102;-78
2020/12/27 01:30:44;;;;;;;5.43;3.53;;;-3.80;99.90;;;;;;5054418;28;20083;-78
2020/12/27 01:33:24;;;;;;;7.45;4.22;;;-3.80;99.90;;;;;;5070123;28;20033;-78
2020/12/27 01:35:58;;;;;;;5.72;3.50;;;-3.90;99.90;;;;;;5071261;28;20496;-78
2020/12/27 01:38:30;;;;;;;7.85;3.80;;;-4.00;99.90;;;;;;5070796;28;20047;-78
2020/12/27 01:41:03;;;;;;;7.28;3.88;;;-4.00;99.90;;;;;;5054655;28;20047;-78
2020/12/27 01:43:39;;;;;;;8.18;4.38;;;-4.10;99.90;;;;;;5070847;28;20060;-78
2020/12/27 01:46:11;;;;;;;4.93;3.30;;;-4.10;99.90;;;;;;5070352;28;20056;-78
2020/12/27 01:48:42;;;;;;;9.77;4.07;;;-4.10;99.90;;;;;;5070540;28;20040;-78
2020/12/27 01:51:12;;;;;;;5.85;3.70;;;-4.00;99.90;;;;;;5070774;28;20044;-78
2020/12/27 01:53:52;;;;;;;5.53;3.55;;;-4.00;99.90;;;;;;5071525;28;20049;-78
2020/12/27 01:56:56;;;;;;;7.10;3.90;;;-4.00;99.90;;;;;;5075063;28;20049;-79
2020/12/27 01:59:31;;;;;;;8.55;4.82;;;-4.10;99.90;;;;;;5074023;28;20411;-78
2020/12/27 02:02:16;;;;;;;6.35;4.15;;;-4.20;99.90;;;;;;5073853;28;20475;-78
2020/12/27 02:04:59;;;;;;;8.27;4.38;;;-4.20;99.90;;;;;;5059043;28;20139;-78
2020/12/27 02:07:29;;;;;;;7.05;4.30;;;-4.20;99.90;;;;;;5073620;28;20045;-78
2020/12/27 02:10:08;;;;;;;7.00;4.00;;;-4.30;99.90;;;;;;5073499;28;20052;-78
2020/12/27 02:12:41;;;;;;;7.17;4.23;;;-4.30;99.90;;;;;;5057017;28;20087;-78
2020/12/27 02:15:16;;;;;;;7.45;4.78;;;-4.30;99.90;;;;;;5058263;28;20051;-78
2020/12/27 02:18:06;;;;;;;6.35;4.13;;;-4.30;99.90;;;;;;5073748;28;20615;-78
2020/12/27 02:20:39;;;;;;;6.15;4.47;;;-4.40;99.90;;;;;;5073263;28;20044;-78
2020/12/27 02:23:17;;;;;;;6.68;4.63;;;-4.40;99.90;;;;;;5073144;28;20037;-78
2020/12/27 02:26:09;;;;;;;8.38;4.35;;;-4.40;99.90;;;;;;5073231;28;20052;-79
2020/12/27 02:28:47;;;;;;;8.33;4.50;;;-4.40;99.90;;;;;;5073181;28;20495;-78
2020/12/27 02:31:22;;;;;;;6.25;4.05;;;-4.40;99.90;;;;;;5073080;28;20144;-79
2020/12/27 02:33:57;;;;;;;6.90;4.10;;;-4.40;99.90;;;;;;5072882;28;20051;-79
2020/12/27 02:36:31;;;;;;;6.53;4.20;;;-4.50;99.90;;;;;;5072751;28;20050;-78
2020/12/27 02:39:10;;;;;;;7.47;3.80;;;-4.40;99.90;;;;;;5057041;28;20119;-78
2020/12/27 02:41:37;;;;;;;6.07;3.20;;;-4.30;99.90;;;;;;5072966;28;20049;-78
2020/12/27 02:44:18;;;;;;;6.55;3.30;;;-4.30;99.90;;;;;;5072459;28;20040;-78
2020/12/27 02:47:11;;;;;;;7.03;3.63;;;-4.30;99.90;;;;;;5072840;28;20127;-78
2020/12/27 02:50:08;;;;;;;6.18;3.30;;;-4.30;99.90;;;;;;5059870;28;20048;-78
2020/12/27 02:52:40;;;;;;;6.07;3.42;;;-4.20;99.90;;;;;;5072236;28;20412;-78
2020/12/27 02:55:12;;;;;;;4.93;3.45;;;-4.30;99.90;;;;;;5072798;28;20043;-78
2020/12/27 02:57:52;;;;;;;5.70;3.38;;;-4.20;99.90;;;;;;5071943;28;20036;-78
2020/12/27 03:00:29;;;;;;;6.40;3.65;;;-4.20;99.90;;;;;;5056759;28;20560;-78
2020/12/27 03:03:21;;;;;;;4.68;2.70;;;-4.20;99.90;;;;;;5072160;28;20411;-79
2020/12/27 03:05:58;;;;;;;6.22;3.05;;;-4.20;99.90;;;;;;5072859;28;20044;-78
2020/12/27 03:08:29;;;;;;;4.35;2.83;;;-4.20;99.90;;;;;;5057171;28;20083;-78
2020/12/27 03:11:12;;;;;;;6.38;3.42;;;-4.20;99.90;;;;;;5058421;28;20425;-78
2020/12/27 03:13:43;;;;;;;7.07;3.42;;;-4.30;99.90;;;;;;5056674;28;20093;-78
2020/12/27 03:16:15;;;;;;;6.63;3.75;;;-4.30;99.90;;;;;;5072504;28;20044;-78
2020/12/27 03:19:08;;;;;;;5.70;3.17;;;-4.40;99.90;;;;;;5059314;28;20045;-78
2020/12/27 03:21:56;;;;;;;5.05;3.13;;;-4.40;99.90;;;;;;5058875;28;20044;-78
2020/12/27 03:24:48;;;;;;;4.78;3.30;;;-4.40;99.90;;;;;;5072176;28;20553;-79
2020/12/27 03:27:19;;;;;;;4.80;3.03;;;-4.30;99.90;;;;;;5056555;28;20047;-78
2020/12/27 03:29:51;;;;;;;6.20;2.92;;;-4.30;99.90;;;;;;5072038;28;20037;-80
2020/12/27 03:32:24;;;;;;;5.40;2.75;;;-4.30;99.90;;;;;;5072238;28;20458;-78
2020/12/27 03:34:55;;;;;;;7.30;3.58;;;-4.30;99.90;;;;;;5072464;28;20410;-78
2020/12/27 03:37:27;;;;;;;4.20;2.83;;;-4.30;99.90;;;;;;5072111;28;20498;-78
2020/12/27 03:40:14;;;;;;;5.03;2.97;;;-4.30;99.90;;;;;;5058390;28;20490;-78
2020/12/27 03:43:14;;;;;;;4.63;2.50;;;-4.30;99.90;;;;;;5053414;28;20560;-78
2020/12/27 03:45:46;;;;;;;6.93;3.08;;;-4.30;99.90;;;;;;5071858;28;20052;-78
2020/12/27 03:48:20;;;;;;;5.70;3.10;;;-4.40;99.90;;;;;;5072095;28;20051;-78
2020/12/27 03:51:10;;;;;;;4.60;3.10;;;-4.40;99.90;;;;;;5071941;28;20110;-78
2020/12/27 03:53:37;;;;;;;7.05;2.90;;;-4.40;99.90;;;;;;5055080;28;20059;-79
2020/12/27 03:56:21;;;;;;;4.95;2.92;;;-4.40;99.90;;;;;;5057505;28;20567;-78
2020/12/27 03:59:04;;;;;;;5.43;2.97;;;-4.50;99.90;;;;;;5071764;28;20047;-78
2020/12/27 04:01:38;;;;;;;5.28;2.45;;;-4.50;99.90;;;;;;5056217;28;20391;-78
2020/12/27 04:04:10;;;;;;;4.22;2.70;;;-4.40;99.90;;;;;;5055414;28;20134;-78
2020/12/27 04:06:36;;;;;;;3.53;3.03;;;-4.40;99.90;;;;;;5055070;28;20122;-78
2020/12/27 04:09:22;;;;;;;4.15;2.60;;;-4.40;99.90;;;;;;5072963;28;20141;-78
2020/12/27 04:11:48;;;;;;;4.55;2.30;;;-4.40;99.90;;;;;;5054731;28;20529;-79
2020/12/27 04:14:20;;;;;;;5.22;2.67;;;-4.40;99.90;;;;;;5071245;28;20032;-80
2020/12/27 04:16:52;;;;;;;4.28;2.55;;;-4.40;99.90;;;;;;5070727;28;20064;-79
2020/12/27 04:19:18;;;;;;;6.03;2.85;;;-4.40;99.90;;;;;;5054477;28;20051;-79
2020/12/27 04:22:01;;;;;;;3.83;2.40;;;-4.30;99.90;;;;;;5071622;28;20128;-80
2020/12/27 04:24:55;;;;;;;3.53;2.03;;;-4.30;99.90;;;;;;5072128;28;20283;-78
2020/12/27 04:27:26;;;;;;;4.45;2.55;;;-4.40;99.90;;;;;;5071644;28;20044;-78
2020/12/27 04:29:58;;;;;;;3.92;2.40;;;-4.40;99.90;;;;;;5071094;28;20126;-78
2020/12/27 04:32:45;;;;;;;3.78;2.50;;;-4.40;99.90;;;;;;5071079;28;20060;-78
2020/12/27 04:35:18;;;;;;;4.32;2.63;;;-4.40;99.90;;;;;;5055745;28;20044;-79
2020/12/27 04:37:46;;;;;;;4.15;2.42;;;-4.40;99.90;;;;;;5054896;28;20396;-78
2020/12/27 04:40:26;;;;;;;4.30;2.80;;;-4.40;99.90;;;;;;5056355;28;20527;-79
2020/12/27 04:43:01;;;;;;;3.28;2.15;;;-4.40;99.90;;;;;;5070836;28;20514;-80
2020/12/27 04:45:37;;;;;;;4.93;3.05;;;-4.30;99.90;;;;;;5055736;28;20170;-80
2020/12/27 04:48:28;;;;;;;3.67;2.53;;;-4.30;99.90;;;;;;5057669;28;20048;-78
2020/12/27 04:51:18;;;;;;;4.28;2.53;;;-4.30;99.90;;;;;;5072546;28;20166;-78
2020/12/27 04:53:57;;;;;;;3.40;2.17;;;-4.30;99.90;;;;;;5070661;28;20139;-78
2020/12/27 04:56:44;;;;;;;7.72;2.30;;;-4.30;99.90;;;;;;5070944;28;20049;-78
2020/12/27 04:59:16;;;;;;;4.50;2.53;;;-4.30;99.90;;;;;;5055103;28;20099;-78
2020/12/27 05:01:44;;;;;;;5.13;2.85;;;-4.30;99.90;;;;;;5054806;28;20131;-78
2020/12/27 05:04:45;;;;;;;4.43;2.38;;;-4.30;99.90;;;;;;5071499;28;20045;-78
2020/12/27 05:07:24;;;;;;;4.70;2.37;;;-4.30;99.90;;;;;;5070610;28;20048;-78
2020/12/27 05:10:23;;;;;;;3.47;2.53;;;-4.30;99.90;;;;;;5070824;28;20115;-79
2020/12/27 05:13:02;;;;;;;3.47;2.22;;;-4.30;99.90;;;;;;5070720;28;20041;-78
2020/12/27 05:15:38;;;;;;;5.28;2.30;;;-4.30;99.90;;;;;;5054947;28;20144;-78
2020/12/27 05:18:06;;;;;;;4.13;2.63;;;-4.20;99.90;;;;;;5053715;28;20047;-78
2020/12/27 05:20:41;;;;;;;;;;;-4.20;99.90;;;;;;5071351;28;20044;-78
2020/12/27 05:23:12;;;;;;;3.40;2.20;;;-4.20;99.90;;;;;;5055019;28;19920;-78
2020/12/27 05:25:49;;;;;;;5.30;2.55;;;-4.20;99.90;;;;;;5055935;28;20075;-79
2020/12/27 05:28:38;;;;;;;5.05;2.30;;;-4.20;99.90;;;;;;5057403;28;20499;-78
2020/12/27 05:31:37;;;;;;;4.50;2.58;;;-4.20;99.90;;;;;;5074468;28;20052;-78
2020/12/27 05:34:44;;;;;;;3.90;2.40;;;-4.20;99.90;;;;;;5074875;28;20055;-78
2020/12/27 05:37:53;;;;;;;5.47;2.28;;;-4.20;99.90;;;;;;5069160;28;20044;-80
2020/12/27 05:40:40;;;;;;;4.40;2.65;;;-4.20;99.90;;;;;;5075625;28;20098;-78
2020/12/27 05:43:19;;;;;;;3.92;2.83;;;-4.20;99.90;;;;;;5059033;28;20044;-78
2020/12/27 05:45:59;;;;;;;4.68;2.75;;;-4.20;99.90;;;;;;5074044;28;20044;-78
2020/12/27 05:48:30;;;;;;;3.70;2.58;;;-4.20;99.90;;;;;;5058123;28;20064;-78
2020/12/27 05:51:03;;;;;;;5.43;2.83;;;-4.20;99.90;;;;;;5073682;28;20075;-80
2020/12/27 05:53:37;;;;;;;5.53;3.05;;;-4.20;99.90;;;;;;5057158;28;20131;-78
2020/12/27 05:56:16;;;;;;;4.63;2.28;;;-4.20;99.90;;;;;;5073254;28;20090;-79
2020/12/27 05:58:48;;;;;;;5.40;2.67;;;-4.30;99.90;;;;;;5073723;28;20044;-78
2020/12/27 06:01:25;;;;;;;3.70;2.42;;;-4.30;99.90;;;;;;5074055;28;20040;-78
2020/12/27 06:04:03;;;;;;;5.32;3.08;;;-4.30;99.90;;;;;;5058528;28;20044;-78
2020/12/27 06:06:59;;;;;;;3.93;2.70;;;-4.30;99.90;;;;;;5073679;28;20506;-78
2020/12/27 06:09:52;;;;;;;4.17;2.50;;;-4.30;99.90;;;;;;5058506;28;20051;-78
2020/12/27 06:12:43;;;;;;;3.95;2.47;;;-4.30;99.90;;;;;;5073372;28;20063;-79
2020/12/27 06:15:27;;;;;;;3.75;2.22;;;-4.20;99.90;;;;;;5057453;28;20090;-78
2020/12/27 06:18:39;;;;;;;4.93;3.00;;;-4.20;99.90;;;;;;5074525;28;20041;-78
2020/12/27 06:21:27;;;;;;;3.92;2.78;;;-4.20;99.90;;;;;;5059274;28;20040;-78
2020/12/27 06:24:02;;;;;;;3.40;2.23;;;-4.20;99.90;;;;;;5072670;28;20095;-79
2020/12/27 06:26:33;;;;;;;4.68;2.45;;;-4.20;99.90;;;;;;5073082;28;20044;-78
2020/12/27 06:29:34;;;;;;;3.63;2.22;;;-4.20;99.90;;;;;;5073197;28;20134;-78
2020/12/27 06:32:04;;;;;;;4.03;2.28;;;-4.20;99.90;;;;;;5056770;28;20117;-78
2020/12/27 06:34:44;;;;;;;3.15;2.17;;;-4.20;99.90;;;;;;5058869;28;20597;-78
2020/12/27 06:37:20;;;;;;;4.55;2.88;;;-4.10;99.90;;;;;;5057760;28;20424;-78
2020/12/27 06:40:06;;;;;;;3.55;2.35;;;-4.10;99.90;;;;;;5061780;28;20047;-78
2020/12/27 06:43:20;;;;;;;4.78;1.92;;;-4.00;99.90;;;;;;5072864;28;20055;-78
2020/12/27 06:46:26;;;;;;;3.40;2.30;;;-4.00;99.90;;;;;;5067328;28;20048;-78
2020/12/27 06:49:06;;;;;;;3.60;2.08;;;-3.90;99.90;;;;;;5074103;28;20620;-77
2020/12/27 06:51:55;;;;;;;5.20;2.50;;;-3.90;99.90;;;;;;5074181;28;20414;-77
2020/12/27 06:54:54;;;;;;;3.90;2.40;;;-3.90;99.90;;;;;;5073930;28;20052;-77
2020/12/27 06:57:46;;;;;;;2.90;2.10;;;-3.90;99.90;;;;;;5056807;28;20515;-77
2020/12/27 07:00:32;;;;;;;4.05;1.83;;;-3.90;99.90;;;;;;5041505;28;20067;-78
2020/12/27 07:03:18;;;;;;;5.38;3.05;;;-3.90;99.90;;;;;;5063146;28;20063;-78
2020/12/27 07:05:50;;;;;;;3.67;2.40;;;-3.90;99.90;;;;;;5035994;28;20136;-78
2020/12/27 07:08:42;;;;;;;4.05;2.55;;;-3.90;99.90;;;;;;5052090;28;20124;-79
2020/12/27 07:11:21;;;;;;;4.68;2.60;;;-3.90;99.90;;;;;;5052928;28;20094;-79
2020/12/27 07:13:54;;;;;;;5.97;2.67;;;-3.80;99.90;;;;;;5052603;28;20044;-79
2020/12/27 07:16:48;;;;;;;6.68;2.97;;;-3.80;99.90;;;;;;5052389;28;20137;-80
2020/12/27 07:19:19;;;;;;;5.03;2.42;;;-3.80;99.90;;;;;;5052255;28;20045;-79
2020/12/27 07:21:47;;;;;;;4.85;2.50;;;-3.80;99.90;;;;;;5035373;28;20053;-79
2020/12/27 07:24:18;;;;;;;3.10;2.20;;;-3.80;99.90;;;;;;5035126;28;20099;-79
2020/12/27 07:26:50;;;;;;;4.53;2.28;;;-3.80;99.90;;;;;;5052108;28;20048;-79
2020/12/27 07:29:19;;;;;;;4.35;2.60;;;-3.80;99.90;;;;;;5034972;28;20044;-79
2020/12/27 07:31:51;;;;;;;;;;;-3.70;99.90;;;;;;5052296;28;20068;-79
2020/12/27 07:34:29;;;;;;;3.53;2.08;;;-3.70;99.90;;;;;;5051408;28;19974;-81
2020/12/27 07:37:03;;;;;;;5.07;2.58;;;-3.70;99.90;;;;;;5064513;28;20586;-80
2020/12/27 07:39:52;;;;;;;5.05;2.40;;;-3.70;99.90;;;;;;5054566;28;20049;-79
2020/12/27 07:42:30;;;;;;;3.47;2.28;;;-3.70;99.90;;;;;;5071329;28;20583;-79
2020/12/27 07:45:12;;;;;;;6.55;2.60;;;-3.60;99.90;;;;;;5055243;28;20044;-80
2020/12/27 07:47:43;;;;;;;3.85;2.25;;;-3.60;99.90;;;;;;5071165;28;20047;-79
2020/12/27 07:50:19;;;;;;;3.13;2.20;;;-3.50;99.90;;;;;;5055170;28;20049;-80
2020/12/27 07:53:00;;;;;;;3.53;2.30;;;-3.60;99.90;;;;;;5054253;28;20041;-79
2020/12/27 07:55:39;;;;;;;4.95;2.42;;;-3.60;99.90;;;;;;5054884;28;20066;-78
2020/12/27 07:58:10;;;;;;;4.20;2.33;;;-3.50;99.90;;;;;;5056271;28;20041;-79
2020/12/27 08:00:40;;;;;;;3.85;2.13;;;-3.50;99.90;;;;;;5071785;28;20072;-79
2020/12/27 08:03:11;;;;;;;4.10;2.22;;;-3.50;99.90;;;;;;5070863;28;20067;-80
2020/12/27 08:05:43;;;;;;;5.03;2.58;;;-3.40;99.90;;;;;;5055122;28;20110;-79
2020/12/27 08:08:14;;;;;;;3.17;2.65;;;-3.40;99.90;;;;;;5054557;28;20049;-79
2020/12/27 08:10:47;;;;;;;4.93;2.60;;;-3.40;99.90;;;;;;5054896;28;20503;-79
2020/12/27 08:13:13;;;;;;;4.47;2.38;;;-3.40;99.90;;;;;;5070183;28;20040;-79
2020/12/27 08:15:41;;;;;;;4.68;2.60;;;-3.30;99.90;;;;;;5051342;28;20193;-79
2020/12/27 08:18:09;;;;;;;4.28;2.33;;;-3.20;99.90;;;;;;5050712;28;20067;-79
2020/12/27 08:20:49;;;;;;;4.25;2.63;;;-3.20;99.90;;;;;;5050466;28;20045;-79
2020/12/27 08:23:21;;;;;;;3.63;2.30;;;-3.10;99.90;;;;;;5034494;28;20545;-79
2020/12/27 08:25:55;;;;;;;6.00;2.63;;;-3.00;99.90;;;;;;5034023;28;20048;-80
2020/12/27 08:28:27;;;;;;;3.90;2.55;;;-3.00;99.90;;;;;;5049967;28;20045;-79
2020/12/27 08:30:58;;;;;;;3.38;2.38;;;-3.00;99.90;;;;;;5050586;28;20045;-80
2020/12/27 08:33:30;;;;;;;3.85;2.92;;;-3.00;99.90;;;;;;5034458;28;20539;-80
2020/12/27 08:35:57;;;;;;;3.08;1.92;;;-3.00;99.90;;;;;;5034615;28;20048;-79
2020/12/27 08:38:46;;;;;;;4.20;2.30;;;-2.90;99.90;;;;;;5066690;28;20047;-80
2020/12/27 08:41:23;;;;;;;3.13;1.77;;;-2.90;99.90;;;;;;5071949;28;20475;-79
2020/12/27 08:44:06;;;;;;;4.72;2.70;;;-2.90;99.90;;;;;;5056226;28;20447;-79
2020/12/27 08:46:40;;;;;;;4.82;1.80;;;-2.80;99.90;;;;;;5055932;28;20049;-79
2020/12/27 08:49:13;;;;;;;5.57;3.00;;;-2.80;99.90;;;;;;5073084;28;20075;-79
2020/12/27 08:51:43;;;;;;;3.60;2.20;;;-2.80;99.90;;;;;;5071880;28;20057;-79
2020/12/27 08:54:17;;;;;;;8.55;3.13;;;-2.70;99.90;;;;;;5056567;28;20526;-79
2020/12/27 08:56:51;;;;;;;3.92;2.08;;;-2.70;99.90;;;;;;5056654;28;20410;-79
2020/12/27 08:59:18;;;;;;;5.32;2.65;;;-2.70;99.90;;;;;;5055678;28;20043;-79
2020/12/27 09:01:50;;;;;;;5.22;2.55;;;-2.60;99.90;;;;;;5072174;28;20064;-78
2020/12/27 09:28:45;;;;;;;3.30;2.38;;;-2.20;99.90;;;;;;5146948;24;20107;-79
2020/12/27 09:31:13;;;;;;;62.05;28.00;;;-2.10;99.90;;;;;;4790143;30;20562;-79
2020/12/27 09:33:47;;;;;;;11.37;6.03;;;-2.00;99.90;;;;;;4946038;24;20146;-79
2020/12/27 09:36:19;;;;;;;5.57;3.92;;;-2.00;99.90;;;;;;4789972;29;20057;-79
2020/12/27 09:38:50;;;;;;;5.05;2.97;;;-1.80;99.90;;;;;;4775503;30;20055;-79
2020/12/27 09:41:24;;;;;;;3.65;2.40;;;-1.80;99.90;;;;;;4789593;29;20106;-79
2020/12/27 09:44:02;;;;;;;;;;;-1.60;99.90;;;;;;5365550;24;20030;-79
2020/12/27 09:46:55;;;;;;;6.30;2.92;;;-1.50;99.90;;;;;;4774118;30;19932;-79
2020/12/27 09:49:31;;;;;;;3.88;2.45;;;-1.40;99.90;;;;;;4775380;30;20047;-79
2020/12/27 09:52:03;;;;;;;3.55;2.10;;;-1.30;99.90;;;;;;4789524;29;20220;-79
2020/12/27 09:54:34;;;;;;;5.72;2.40;;;-1.20;99.90;;;;;;4912515;24;20055;-79
2020/12/27 09:57:20;;;;;;;8.23;4.68;;;-1.10;99.90;;;;;;4790224;29;20061;-79
2020/12/27 10:00:18;;;;;;;8.63;3.25;;;-0.90;99.90;;;;;;4789584;30;20059;-79
2020/12/27 10:02:50;;;;;;;5.95;2.50;;;-0.90;99.90;;;;;;4789654;30;20054;-79
2020/12/27 10:05:21;;;;;;;4.15;2.90;;;-0.80;99.90;;;;;;4775227;29;20055;-79
2020/12/27 10:07:53;;;;;;;3.53;2.38;;;-0.70;99.90;;;;;;4775224;30;20091;-79
2020/12/27 10:10:21;;;;;;;3.60;2.60;;;-0.60;99.40;;;;;;4774421;29;20086;-79
2020/12/27 10:12:52;;;;;;;5.30;2.70;;;-0.50;98.40;;;;;;4774909;29;20427;-79
2020/12/27 10:15:19;;;;;;;5.03;2.65;;;-0.50;98.60;;;;;;4788490;29;20051;-78
2020/12/27 10:17:46;;;;;;;4.28;2.42;;;-0.40;98.50;;;;;;4774555;29;20061;-79
2020/12/27 10:20:12;;;;;;;4.68;2.10;;;-0.30;98.90;;;;;;4774343;29;20146;-79
2020/12/27 10:22:44;;;;;;;4.70;2.55;;;-0.30;98.00;;;;;;4789103;29;20180;-79
2020/12/27 10:25:15;;;;;;;3.97;2.42;;;-0.10;97.10;;;;;;4774626;29;20135;-79
2020/12/27 10:27:42;;;;;;;3.30;2.28;;;0.00;97.20;;;;;;4775007;29;20048;-79
2020/12/27 10:30:14;;;;;;;3.38;2.40;;;0.00;96.60;;;;;;4775096;29;20047;-79
2020/12/27 10:35:43;;;;;;;6.38;2.50;;;0.10;95.40;;;;;;4995377;24;20058;-79
2020/12/27 10:38:15;;;;;;;4.70;3.05;;;0.20;95.30;;;;;;4774952;30;20052;-79
2020/12/27 10:40:47;;;;;;;4.63;2.58;;;0.20;95.00;;;;;;4788755;29;20047;-79
2020/12/27 10:43:19;;;;;;;3.63;2.33;;;0.30;94.70;;;;;;4772634;30;20059;-75
2020/12/27 10:45:45;;;;;;;4.35;2.20;;;0.60;99.90;;;;;;4785666;29;20519;-74
2020/12/27 10:48:17;;;;;;;2.88;2.20;;;1.30;99.90;;;;;;4788487;29;20094;-79
2020/12/27 10:50:48;;;;;;;3.72;2.88;;;1.60;92.80;;;;;;4788301;29;20057;-79
2020/12/27 10:53:20;;;;;;;3.78;2.90;;;1.50;91.70;;;;;;4787996;29;20454;-79
2020/12/27 10:55:47;;;;;;;5.32;2.83;;;1.20;91.30;;;;;;4789275;29;20058;-79
2020/12/27 10:58:19;;;;;;;4.15;3.05;;;1.10;91.00;;;;;;4788139;29;20495;-79
2020/12/27 11:00:51;;;;;;;2.92;2.15;;;1.00;91.30;;;;;;4773833;29;20052;-79
2020/12/27 11:03:23;;;;;;;4.65;3.42;;;0.90;91.30;;;;;;4788057;29;20050;-79
2020/12/27 11:05:50;;;;;;;5.28;2.45;;;0.90;92.60;;;;;;4788082;29;20410;-79
2020/12/27 11:08:21;;;;;;;3.35;1.88;;;0.90;90.80;;;;;;4773654;29;20055;-79
2020/12/27 11:10:48;;;;;;;3.00;1.75;;;1.00;90.40;;;;;;4788725;29;20052;-78
2020/12/27 11:13:20;;;;;;;6.25;2.50;;;1.00;90.00;;;;;;4896655;24;20087;-79
2020/12/27 11:15:52;;;;;;;2.88;1.85;;;0.90;90.60;;;;;;4773938;30;20142;-77
2020/12/27 11:18:18;;;;;;;3.20;2.20;;;1.00;90.80;;;;;;4788004;29;20575;-78
2020/12/27 11:20:50;;;;;;;4.65;2.20;;;1.00;90.30;;;;;;4784623;29;20579;-78
2020/12/27 11:23:21;;;;;;;5.13;1.90;;;1.00;90.00;;;;;;4785418;30;20234;-78
2020/12/27 11:25:52;;;;;;;4.68;2.00;;;1.00;88.70;;;;;;4785826;29;20269;-78
2020/12/27 11:28:23;;;;;;;4.07;2.20;;;1.00;88.00;;;;;;4785774;29;20158;-78
2020/12/27 11:30:50;;;;;;;3.58;2.50;;;1.00;87.50;;;;;;4786232;29;20116;-78
2020/12/27 11:33:21;;;;;;;4.97;1.92;;;1.00;89.20;;;;;;4786167;30;20067;-78
2020/12/27 11:35:53;;;;;;;2.97;2.33;;;1.10;90.00;;;;;;4768648;30;20055;-78
2020/12/27 11:38:24;;;;;;;3.65;2.60;;;1.10;89.70;;;;;;4791468;29;20069;-77
2020/12/27 11:40:55;;;;;;;4.00;2.58;;;1.10;91.10;;;;;;4774308;30;20071;-78
2020/12/27 11:43:21;;;;;;;3.08;2.22;;;1.00;91.50;;;;;;4774040;30;20511;-78
2020/12/27 11:45:48;;;;;;;5.20;3.45;;;1.10;92.50;;;;;;4787805;29;20511;-78
2020/12/27 11:48:19;;;;;;;3.92;2.30;;;1.10;91.90;;;;;;4773530;30;20089;-77
2020/12/27 11:50:51;;;;;;;5.68;3.17;;;1.10;91.60;;;;;;4770738;30;20044;-77
2020/12/27 11:53:17;;;;;;;6.47;3.42;;;1.10;93.00;;;;;;4788411;29;20065;-77
2020/12/27 11:55:48;;;;;;;3.08;1.90;;;1.10;92.30;;;;;;4787811;30;20043;-77
2020/12/27 11:58:15;;;;;;;2.25;1.63;;;1.10;91.50;;;;;;4778116;29;20100;-78
2020/12/27 12:00:41;;;;;;;5.50;3.50;;;1.10;91.40;;;;;;4800891;29;20047;-80
2020/12/27 12:03:13;;;;;;;7.68;4.13;;;1.20;92.00;;;;;;4771644;30;20062;-80
2020/12/27 12:05:39;;;;;;;6.43;4.35;;;1.20;92.60;;;;;;4786860;30;20084;-79
2020/12/27 12:08:10;;;;;;;16.52;9.02;;;1.30;93.10;;;;;;4786769;30;20055;-77
2020/12/27 12:10:42;;;;;;;13.57;7.88;;;1.40;93.50;;;;;;4772635;30;20118;-78
2020/12/27 12:13:08;;;;;;;12.85;7.20;;;1.50;93.60;;;;;;4786239;29;20112;-78
2020/12/27 12:15:42;;;;;;;5.47;3.75;;;1.50;93.60;;;;;;4772777;30;20473;-78
2020/12/27 12:18:13;;;;;;;9.23;4.28;;;1.50;93.50;;;;;;4771044;30;20051;-77
2020/12/27 12:20:47;;;;;;;4.90;3.60;;;1.50;92.80;;;;;;4771696;30;20147;-77
2020/12/27 12:23:19;;;;;;;4.15;2.35;;;1.40;93.20;;;;;;4771420;30;20420;-78
2020/12/27 12:25:46;;;;;;;6.15;3.40;;;1.40;92.80;;;;;;4785605;29;20154;-77
2020/12/27 12:28:17;;;;;;;4.75;3.08;;;1.30;93.00;;;;;;4770958;30;20079;-77
2020/12/27 12:30:49;;;;;;;3.00;2.10;;;1.30;93.30;;;;;;4771493;30;20414;-78
2020/12/27 12:33:20;;;;;;;2.80;1.67;;;1.20;93.20;;;;;;4785397;29;20073;-78
2020/12/27 12:35:51;;;;;;;3.47;2.03;;;1.10;93.30;;;;;;4785456;30;20039;-80
2020/12/27 12:38:22;;;;;;;2.30;1.85;;;1.20;93.70;;;;;;4770706;30;20070;-80
2020/12/27 12:40:48;;;;;;;3.22;2.53;;;1.20;92.80;;;;;;4785024;29;20588;-80
2020/12/27 12:43:20;;;;;;;4.82;2.35;;;1.10;93.20;;;;;;4771192;30;20149;-80
2020/12/27 12:45:46;;;;;;;5.82;3.58;;;1.00;93.30;;;;;;4785449;29;20145;-79
2020/12/27 12:48:17;;;;;;;3.70;2.45;;;1.00;93.80;;;;;;4770597;30;20055;-80
2020/12/27 12:50:48;;;;;;;5.53;3.38;;;1.10;94.10;;;;;;4770694;30;20058;-80
2020/12/27 12:53:20;;;;;;;5.93;2.63;;;1.10;93.40;;;;;;4785210;30;20050;-80
2020/12/27 12:55:51;;;;;;;3.35;2.00;;;1.10;93.70;;;;;;4785116;30;20051;-80
2020/12/27 12:58:22;;;;;;;2.53;1.70;;;1.10;93.80;;;;;;4771555;30;20134;-77
2020/12/27 13:00:49;;;;;;;2.92;1.55;;;1.10;94.30;;;;;;4786316;29;20116;-80
2020/12/27 13:07:02;;;;;;;3.45;1.95;;;1.10;95.00;;;;;;4864537;24;20120;-79
2020/12/27 13:09:30;;;;;;;6.82;1.80;;;1.10;95.40;;;;;;4771213;29;20058;-79
2020/12/27 13:12:02;;;;;;;3.13;1.60;;;1.10;98.90;;;;;;4786127;30;20151;-78
2020/12/27 13:14:29;;;;;;;3.15;1.50;;;1.30;95.70;;;;;;4785279;29;20134;-78
2020/12/27 13:17:01;;;;;;;2.53;1.65;;;1.50;97.60;;;;;;4771931;30;20058;-78
2020/12/27 13:19:28;;;;;;;2.15;1.42;;;1.40;95.00;;;;;;4771106;29;20063;-78
2020/12/27 13:21:55;;;;;;;2.85;1.60;;;1.40;95.00;;;;;;4771323;30;20047;-78
2020/12/27 13:24:21;;;;;;;3.67;2.63;;;1.40;94.90;;;;;;4786019;29;20112;-78
2020/12/27 13:26:53;;;;;;;3.28;1.50;;;1.40;94.60;;;;;;4771869;29;20075;-78
2020/12/27 13:29:20;;;;;;;2.92;1.70;;;1.30;94.80;;;;;;4786234;29;20525;-78
2020/12/27 13:31:52;;;;;;;2.90;1.73;;;1.30;95.10;;;;;;4771881;29;20138;-78
2020/12/27 13:34:18;;;;;;;5.47;1.75;;;1.30;94.80;;;;;;4771048;29;20051;-78
2020/12/27 13:36:45;;;;;;;4.00;1.80;;;1.20;95.10;;;;;;4771333;29;20143;-78
2020/12/27 13:39:17;;;;;;;5.78;1.95;;;1.20;95.60;;;;;;4772121;29;20043;-78
2020/12/27 13:41:48;;;;;;;3.53;1.83;;;1.10;95.00;;;;;;4771787;29;20047;-78
2020/12/27 13:44:15;;;;;;;5.43;2.05;;;1.00;95.30;;;;;;4771168;30;20142;-78
2020/12/27 13:46:43;;;;;;;4.72;1.63;;;1.00;94.80;;;;;;4771176;29;20146;-78
2020/12/27 13:49:15;;;;;;;4.80;1.63;;;1.00;95.50;;;;;;4771825;29;20463;-78
2020/12/27 13:51:42;;;;;;;2.15;1.70;;;1.00;95.30;;;;;;4774498;29;20074;-78
2020/12/27 13:54:13;;;;;;;3.72;1.98;;;1.00;95.40;;;;;;4774771;29;20051;-78
2020/12/27 13:56:40;;;;;;;4.07;1.80;;;0.90;95.50;;;;;;4774524;29;20055;-78
2020/12/27 13:59:07;;;;;;;3.90;1.75;;;1.00;95.20;;;;;;4774147;29;20471;-78
2020/12/27 14:01:34;;;;;;;2.38;1.77;;;1.00;95.30;;;;;;4774739;29;20437;-78
2020/12/27 14:04:05;;;;;;;3.63;2.00;;;1.00;94.60;;;;;;4774916;29;20043;-78